sensor_id;sensor_type;location;lat;lon;timestamp;P1;durP1;ratioP1;P2;durP2;ratioP2
23088;SDS011;11713;48.506;8.966;2023-04-01T00:00:53;2.70;;;1.30;;
23088;SDS011;11713;48.506;8.966;2023-04-01T00:03:21;5.70;;;3.20;;
23088;SDS011;11713;48.506;8.966;2023-04-01T00:05:48;3.97;;;2.43;;
23088;SDS011;11713;48.506;8.966;2023-04-01T00:08:14;5.00;;;2.87;;
23088;SDS011;11713;48.506;8.966;2023-04-01T00:10:40;6.27;;;2.00;;
23088;SDS011;11713;48.506;8.966;2023-04-01T00:13:06;4.03;;;1.60;;
23088;SDS011;11713;48.506;8.966;2023-04-01T00:15:33;4.40;;;1.40;;
23088;SDS011;11713;48.506;8.966;2023-04-01T00:17:59;2.70;;;1.33;;
23088;SDS011;11713;48.506;8.966;2023-04-01T00:20:26;3.00;;;1.20;;
23088;SDS011;11713;48.506;8.966;2023-04-01T00:22:52;3.10;;;1.10;;
23088;SDS011;11713;48.506;8.966;2023-04-01T00:25:18;4.50;;;1.03;;
23088;SDS011;11713;48.506;8.966;2023-04-01T00:27:44;1.03;;;0.80;;
23088;SDS011;11713;48.506;8.966;2023-04-01T00:30:10;3.47;;;1.00;;
23088;SDS011;11713;48.506;8.966;2023-04-01T00:32:36;1.87;;;0.67;;
23088;SDS011;11713;48.506;8.966;2023-04-01T00:35:02;2.23;;;0.80;;
23088;SDS011;11713;48.506;8.966;2023-04-01T00:37:29;2.20;;;0.87;;
23088;SDS011;11713;48.506;8.966;2023-04-01T00:39:55;1.60;;;0.70;;
23088;SDS011;11713;48.506;8.966;2023-04-01T00:42:22;2.07;;;1.03;;
23088;SDS011;11713;48.506;8.966;2023-04-01T00:44:52;1.53;;;0.60;;
23088;SDS011;11713;48.506;8.966;2023-04-01T00:47:20;1.93;;;0.80;;
23088;SDS011;11713;48.506;8.966;2023-04-01T00:49:48;0.80;;;0.80;;
23088;SDS011;11713;48.506;8.966;2023-04-01T00:52:21;2.40;;;0.80;;
23088;SDS011;11713;48.506;8.966;2023-04-01T00:54:50;3.03;;;1.00;;
23088;SDS011;11713;48.506;8.966;2023-04-01T00:57:23;2.80;;;1.10;;
23088;SDS011;11713;48.506;8.966;2023-04-01T00:59:58;4.03;;;1.00;;
23088;SDS011;11713;48.506;8.966;2023-04-01T01:02:25;4.00;;;0.70;;
23088;SDS011;11713;48.506;8.966;2023-04-01T01:04:51;1.37;;;0.70;;
23088;SDS011;11713;48.506;8.966;2023-04-01T01:17:48;1.63;;;0.60;;
23088;SDS011;11713;48.506;8.966;2023-04-01T01:20:37;2.23;;;0.67;;
23088;SDS011;11713;48.506;8.966;2023-04-01T01:34:53;0.63;;;0.50;;
23088;SDS011;11713;48.506;8.966;2023-04-01T01:37:45;2.07;;;0.80;;
23088;SDS011;11713;48.506;8.966;2023-04-01T01:40:13;1.13;;;0.60;;
23088;SDS011;11713;48.506;8.966;2023-04-01T01:42:42;1.73;;;0.40;;
23088;SDS011;11713;48.506;8.966;2023-04-01T01:45:16;0.40;;;0.40;;
23088;SDS011;11713;48.506;8.966;2023-04-01T01:47:45;2.03;;;0.50;;
23088;SDS011;11713;48.506;8.966;2023-04-01T01:50:12;0.40;;;0.40;;
23088;SDS011;11713;48.506;8.966;2023-04-01T01:52:40;0.33;;;0.33;;
23088;SDS011;11713;48.506;8.966;2023-04-01T01:55:23;1.67;;;0.50;;
23088;SDS011;11713;48.506;8.966;2023-04-01T01:58:06;0.90;;;0.43;;
23088;SDS011;11713;48.506;8.966;2023-04-01T02:00:38;0.43;;;0.43;;
23088;SDS011;11713;48.506;8.966;2023-04-01T02:03:08;0.67;;;0.50;;
23088;SDS011;11713;48.506;8.966;2023-04-01T02:05:37;0.30;;;0.30;;
23088;SDS011;11713;48.506;8.966;2023-04-01T02:08:08;1.37;;;0.50;;
23088;SDS011;11713;48.506;8.966;2023-04-01T02:10:39;0.60;;;0.60;;
23088;SDS011;11713;48.506;8.966;2023-04-01T02:13:13;3.30;;;0.50;;
23088;SDS011;11713;48.506;8.966;2023-04-01T02:15:47;0.73;;;0.50;;
23088;SDS011;11713;48.506;8.966;2023-04-01T02:18:16;1.20;;;0.60;;
23088;SDS011;11713;48.506;8.966;2023-04-01T02:20:43;2.50;;;0.70;;
23088;SDS011;11713;48.506;8.966;2023-04-01T02:23:11;0.70;;;0.43;;
23088;SDS011;11713;48.506;8.966;2023-04-01T02:25:37;0.50;;;0.50;;
23088;SDS011;11713;48.506;8.966;2023-04-01T02:28:06;0.57;;;0.47;;
23088;SDS011;11713;48.506;8.966;2023-04-01T02:30:34;1.00;;;0.43;;
23088;SDS011;11713;48.506;8.966;2023-04-01T02:33:03;0.73;;;0.60;;
23088;SDS011;11713;48.506;8.966;2023-04-01T02:35:30;1.53;;;0.60;;
23088;SDS011;11713;48.506;8.966;2023-04-01T02:37:59;2.00;;;0.63;;
23088;SDS011;11713;48.506;8.966;2023-04-01T02:40:26;0.97;;;0.60;;
23088;SDS011;11713;48.506;8.966;2023-04-01T02:42:52;2.23;;;0.50;;
23088;SDS011;11713;48.506;8.966;2023-04-01T02:45:18;0.73;;;0.30;;
23088;SDS011;11713;48.506;8.966;2023-04-01T02:47:43;2.03;;;0.80;;
23088;SDS011;11713;48.506;8.966;2023-04-01T02:50:10;0.40;;;0.40;;
23088;SDS011;11713;48.506;8.966;2023-04-01T02:52:37;2.27;;;0.60;;
23088;SDS011;11713;48.506;8.966;2023-04-01T02:55:03;1.33;;;0.83;;
23088;SDS011;11713;48.506;8.966;2023-04-01T02:57:30;0.57;;;0.40;;
23088;SDS011;11713;48.506;8.966;2023-04-01T02:59:56;0.40;;;0.40;;
23088;SDS011;11713;48.506;8.966;2023-04-01T03:02:22;0.67;;;0.50;;
23088;SDS011;11713;48.506;8.966;2023-04-01T03:04:48;1.23;;;0.60;;
23088;SDS011;11713;48.506;8.966;2023-04-01T03:07:13;0.93;;;0.50;;
23088;SDS011;11713;48.506;8.966;2023-04-01T03:09:39;0.47;;;0.40;;
23088;SDS011;11713;48.506;8.966;2023-04-01T03:12:05;1.70;;;1.60;;
23088;SDS011;11713;48.506;8.966;2023-04-01T03:14:42;1.23;;;0.50;;
23088;SDS011;11713;48.506;8.966;2023-04-01T03:17:08;0.43;;;0.43;;
23088;SDS011;11713;48.506;8.966;2023-04-01T03:19:34;0.57;;;0.40;;
23088;SDS011;11713;48.506;8.966;2023-04-01T03:22:04;0.60;;;0.40;;
23088;SDS011;11713;48.506;8.966;2023-04-01T03:24:30;0.30;;;0.30;;
23088;SDS011;11713;48.506;8.966;2023-04-01T03:26:56;0.33;;;0.33;;
23088;SDS011;11713;48.506;8.966;2023-04-01T03:29:22;0.30;;;0.30;;
23088;SDS011;11713;48.506;8.966;2023-04-01T03:31:48;0.57;;;0.33;;
23088;SDS011;11713;48.506;8.966;2023-04-01T03:34:14;0.40;;;0.40;;
23088;SDS011;11713;48.506;8.966;2023-04-01T03:36:40;0.50;;;0.50;;
23088;SDS011;11713;48.506;8.966;2023-04-01T03:39:06;1.03;;;0.50;;
23088;SDS011;11713;48.506;8.966;2023-04-01T03:41:39;0.80;;;0.63;;
23088;SDS011;11713;48.506;8.966;2023-04-01T03:44:05;1.00;;;0.40;;
23088;SDS011;11713;48.506;8.966;2023-04-01T03:46:31;1.10;;;0.60;;
23088;SDS011;11713;48.506;8.966;2023-04-01T03:48:57;0.90;;;0.90;;
23088;SDS011;11713;48.506;8.966;2023-04-01T03:51:23;0.93;;;0.60;;
23088;SDS011;11713;48.506;8.966;2023-04-01T03:53:49;0.70;;;0.50;;
23088;SDS011;11713;48.506;8.966;2023-04-01T03:56:15;1.47;;;0.60;;
23088;SDS011;11713;48.506;8.966;2023-04-01T03:58:41;1.60;;;0.60;;
23088;SDS011;11713;48.506;8.966;2023-04-01T04:01:19;1.17;;;0.67;;
23088;SDS011;11713;48.506;8.966;2023-04-01T04:03:48;0.67;;;0.50;;
23088;SDS011;11713;48.506;8.966;2023-04-01T04:06:15;1.70;;;0.50;;
23088;SDS011;11713;48.506;8.966;2023-04-01T04:08:42;0.40;;;0.40;;
23088;SDS011;11713;48.506;8.966;2023-04-01T04:11:09;2.17;;;0.70;;
23088;SDS011;11713;48.506;8.966;2023-04-01T04:13:39;1.03;;;0.53;;
23088;SDS011;11713;48.506;8.966;2023-04-01T04:16:05;0.97;;;0.50;;
23088;SDS011;11713;48.506;8.966;2023-04-01T04:18:33;2.10;;;0.50;;
23088;SDS011;11713;48.506;8.966;2023-04-01T04:20:59;1.23;;;0.60;;
23088;SDS011;11713;48.506;8.966;2023-04-01T04:23:25;1.13;;;0.47;;
23088;SDS011;11713;48.506;8.966;2023-04-01T04:26:00;0.40;;;0.40;;
23088;SDS011;11713;48.506;8.966;2023-04-01T04:28:30;0.60;;;0.60;;
23088;SDS011;11713;48.506;8.966;2023-04-01T04:30:58;1.53;;;0.50;;
23088;SDS011;11713;48.506;8.966;2023-04-01T04:33:27;1.97;;;0.77;;
23088;SDS011;11713;48.506;8.966;2023-04-01T04:35:57;0.67;;;0.57;;
23088;SDS011;11713;48.506;8.966;2023-04-01T04:38:24;1.40;;;0.70;;
23088;SDS011;11713;48.506;8.966;2023-04-01T04:40:50;1.03;;;0.73;;
23088;SDS011;11713;48.506;8.966;2023-04-01T04:43:17;3.40;;;0.80;;
23088;SDS011;11713;48.506;8.966;2023-04-01T04:45:43;1.67;;;0.80;;
23088;SDS011;11713;48.506;8.966;2023-04-01T04:48:10;1.07;;;0.67;;
23088;SDS011;11713;48.506;8.966;2023-04-01T04:50:46;2.40;;;0.73;;
23088;SDS011;11713;48.506;8.966;2023-04-01T04:53:17;2.20;;;1.03;;
23088;SDS011;11713;48.506;8.966;2023-04-01T04:55:45;0.83;;;0.73;;
23088;SDS011;11713;48.506;8.966;2023-04-01T04:58:42;3.27;;;1.43;;
23088;SDS011;11713;48.506;8.966;2023-04-01T05:01:14;6.03;;;2.53;;
23088;SDS011;11713;48.506;8.966;2023-04-01T05:03:40;6.30;;;3.23;;
23088;SDS011;11713;48.506;8.966;2023-04-01T05:06:07;3.50;;;2.10;;
23088;SDS011;11713;48.506;8.966;2023-04-01T05:08:34;3.10;;;2.07;;
23088;SDS011;11713;48.506;8.966;2023-04-01T05:11:03;3.87;;;2.50;;
23088;SDS011;11713;48.506;8.966;2023-04-01T05:13:35;2.27;;;1.60;;
23088;SDS011;11713;48.506;8.966;2023-04-01T05:16:01;2.57;;;1.00;;
23088;SDS011;11713;48.506;8.966;2023-04-01T05:18:27;3.23;;;1.07;;
23088;SDS011;11713;48.506;8.966;2023-04-01T05:20:53;2.50;;;0.80;;
23088;SDS011;11713;48.506;8.966;2023-04-01T05:23:20;1.40;;;1.00;;
23088;SDS011;11713;48.506;8.966;2023-04-01T05:25:47;1.67;;;0.93;;
23088;SDS011;11713;48.506;8.966;2023-04-01T05:28:15;3.07;;;1.07;;
23088;SDS011;11713;48.506;8.966;2023-04-01T05:30:44;1.70;;;0.63;;
23088;SDS011;11713;48.506;8.966;2023-04-01T05:33:21;0.93;;;0.57;;
23088;SDS011;11713;48.506;8.966;2023-04-01T05:35:47;1.77;;;0.70;;
23088;SDS011;11713;48.506;8.966;2023-04-01T05:38:13;0.80;;;0.80;;
23088;SDS011;11713;48.506;8.966;2023-04-01T05:40:40;2.10;;;1.27;;
23088;SDS011;11713;48.506;8.966;2023-04-01T05:43:05;1.20;;;1.10;;
23088;SDS011;11713;48.506;8.966;2023-04-01T05:45:31;1.67;;;0.97;;
23088;SDS011;11713;48.506;8.966;2023-04-01T05:48:17;1.07;;;0.80;;
23088;SDS011;11713;48.506;8.966;2023-04-01T05:50:43;1.57;;;0.70;;
23088;SDS011;11713;48.506;8.966;2023-04-01T05:53:10;2.37;;;1.10;;
23088;SDS011;11713;48.506;8.966;2023-04-01T05:55:38;1.37;;;0.70;;
23088;SDS011;11713;48.506;8.966;2023-04-01T05:58:04;2.27;;;1.00;;
23088;SDS011;11713;48.506;8.966;2023-04-01T06:00:30;0.97;;;0.87;;
23088;SDS011;11713;48.506;8.966;2023-04-01T06:02:59;2.23;;;1.50;;
23088;SDS011;11713;48.506;8.966;2023-04-01T06:05:27;3.57;;;1.30;;
23088;SDS011;11713;48.506;8.966;2023-04-01T06:08:01;2.07;;;1.60;;
23088;SDS011;11713;48.506;8.966;2023-04-01T06:10:48;2.23;;;1.40;;
23088;SDS011;11713;48.506;8.966;2023-04-01T06:16:49;2.27;;;1.50;;
23088;SDS011;11713;48.506;8.966;2023-04-01T06:22:20;1.30;;;1.00;;
23088;SDS011;11713;48.506;8.966;2023-04-01T06:24:53;2.17;;;0.80;;
23088;SDS011;11713;48.506;8.966;2023-04-01T06:27:41;3.33;;;1.77;;
23088;SDS011;11713;48.506;8.966;2023-04-01T06:36:06;3.97;;;1.70;;
23088;SDS011;11713;48.506;8.966;2023-04-01T06:44:21;1.63;;;1.10;;
23088;SDS011;11713;48.506;8.966;2023-04-01T07:57:53;3.33;;;1.00;;
23088;SDS011;11713;48.506;8.966;2023-04-01T08:03:21;2.80;;;1.13;;
23088;SDS011;11713;48.506;8.966;2023-04-01T08:06:23;2.27;;;1.10;;
23088;SDS011;11713;48.506;8.966;2023-04-01T08:09:09;1.87;;;0.97;;
23088;SDS011;11713;48.506;8.966;2023-04-01T08:18:23;1.57;;;0.90;;
23088;SDS011;11713;48.506;8.966;2023-04-01T08:21:00;2.70;;;1.00;;
23088;SDS011;11713;48.506;8.966;2023-04-01T08:23:32;2.00;;;1.40;;
23088;SDS011;11713;48.506;8.966;2023-04-01T08:26:46;1.80;;;0.87;;
23088;SDS011;11713;48.506;8.966;2023-04-01T08:29:03;1.73;;;0.80;;
23088;SDS011;11713;48.506;8.966;2023-04-01T08:34:39;3.23;;;1.70;;
23088;SDS011;11713;48.506;8.966;2023-04-01T08:37:19;1.50;;;1.10;;
23088;SDS011;11713;48.506;8.966;2023-04-01T08:40:01;2.37;;;1.30;;
23088;SDS011;11713;48.506;8.966;2023-04-01T08:42:57;1.60;;;0.80;;
23088;SDS011;11713;48.506;8.966;2023-04-01T08:45:44;1.17;;;0.73;;
23088;SDS011;11713;48.506;8.966;2023-04-01T08:48:56;2.10;;;1.00;;
23088;SDS011;11713;48.506;8.966;2023-04-01T09:00:43;1.60;;;0.70;;
23088;SDS011;11713;48.506;8.966;2023-04-01T09:09:46;1.10;;;0.83;;
23088;SDS011;11713;48.506;8.966;2023-04-01T09:12:35;1.37;;;0.73;;
23088;SDS011;11713;48.506;8.966;2023-04-01T09:26:27;1.20;;;0.57;;
23088;SDS011;11713;48.506;8.966;2023-04-01T09:34:54;0.73;;;0.73;;
23088;SDS011;11713;48.506;8.966;2023-04-01T09:37:35;0.63;;;0.63;;
23088;SDS011;11713;48.506;8.966;2023-04-01T09:46:09;0.90;;;0.70;;
23088;SDS011;11713;48.506;8.966;2023-04-01T10:05:59;1.70;;;0.90;;
23088;SDS011;11713;48.506;8.966;2023-04-01T10:11:55;1.03;;;0.80;;
23088;SDS011;11713;48.506;8.966;2023-04-01T10:14:55;2.27;;;1.30;;
23088;SDS011;11713;48.506;8.966;2023-04-01T10:20:12;1.27;;;0.83;;
23088;SDS011;11713;48.506;8.966;2023-04-01T10:32:30;2.23;;;1.40;;
23088;SDS011;11713;48.506;8.966;2023-04-01T10:49:47;1.57;;;0.90;;
23088;SDS011;11713;48.506;8.966;2023-04-01T10:59:25;1.40;;;0.40;;
23088;SDS011;11713;48.506;8.966;2023-04-01T11:02:19;0.50;;;0.50;;
23088;SDS011;11713;48.506;8.966;2023-04-01T11:21:43;2.20;;;0.60;;
23088;SDS011;11713;48.506;8.966;2023-04-01T11:30:04;0.80;;;0.60;;
23088;SDS011;11713;48.506;8.966;2023-04-01T11:42:01;2.27;;;0.90;;
23088;SDS011;11713;48.506;8.966;2023-04-01T11:45:03;0.53;;;0.53;;
23088;SDS011;11713;48.506;8.966;2023-04-01T11:55:45;0.67;;;0.67;;
23088;SDS011;11713;48.506;8.966;2023-04-01T12:01:16;1.73;;;1.30;;
23088;SDS011;11713;48.506;8.966;2023-04-01T12:09:24;0.80;;;0.63;;
23088;SDS011;11713;48.506;8.966;2023-04-01T12:25:36;1.03;;;0.77;;
23088;SDS011;11713;48.506;8.966;2023-04-01T12:28:36;0.63;;;0.50;;
23088;SDS011;11713;48.506;8.966;2023-04-01T12:40:23;0.50;;;0.50;;
23088;SDS011;11713;48.506;8.966;2023-04-01T13:00:30;0.60;;;0.60;;
23088;SDS011;11713;48.506;8.966;2023-04-01T13:03:36;0.87;;;0.60;;
23088;SDS011;11713;48.506;8.966;2023-04-01T13:06:25;0.83;;;0.83;;
23088;SDS011;11713;48.506;8.966;2023-04-01T13:09:08;1.00;;;0.80;;
23088;SDS011;11713;48.506;8.966;2023-04-01T13:16:55;0.60;;;0.50;;
23088;SDS011;11713;48.506;8.966;2023-04-01T13:27:56;1.63;;;0.70;;
23088;SDS011;11713;48.506;8.966;2023-04-01T13:30:57;0.70;;;0.70;;
23088;SDS011;11713;48.506;8.966;2023-04-01T13:33:45;1.47;;;0.70;;
23088;SDS011;11713;48.506;8.966;2023-04-01T13:44:14;0.60;;;0.60;;
23088;SDS011;11713;48.506;8.966;2023-04-01T14:08:36;0.60;;;0.60;;
23088;SDS011;11713;48.506;8.966;2023-04-01T14:14:16;3.17;;;1.10;;
23088;SDS011;11713;48.506;8.966;2023-04-01T14:16:54;3.30;;;1.33;;
23088;SDS011;11713;48.506;8.966;2023-04-01T14:22:35;1.17;;;0.87;;
23088;SDS011;11713;48.506;8.966;2023-04-01T14:31:12;1.57;;;0.70;;
23088;SDS011;11713;48.506;8.966;2023-04-01T14:50:57;0.80;;;0.70;;
23088;SDS011;11713;48.506;8.966;2023-04-01T14:53:31;2.40;;;0.90;;
23088;SDS011;11713;48.506;8.966;2023-04-01T14:56:03;1.00;;;0.70;;
23088;SDS011;11713;48.506;8.966;2023-04-01T14:58:46;2.30;;;1.10;;
23088;SDS011;11713;48.506;8.966;2023-04-01T15:07:11;1.40;;;0.70;;
23088;SDS011;11713;48.506;8.966;2023-04-01T15:21:25;2.07;;;1.10;;
23088;SDS011;11713;48.506;8.966;2023-04-01T15:27:31;0.90;;;0.90;;
23088;SDS011;11713;48.506;8.966;2023-04-01T15:35:30;1.50;;;1.00;;
23088;SDS011;11713;48.506;8.966;2023-04-01T15:38:42;1.70;;;0.90;;
23088;SDS011;11713;48.506;8.966;2023-04-01T15:41:22;3.40;;;2.00;;
23088;SDS011;11713;48.506;8.966;2023-04-01T15:44:01;4.37;;;2.10;;
23088;SDS011;11713;48.506;8.966;2023-04-01T15:49:09;1.93;;;1.47;;
23088;SDS011;11713;48.506;8.966;2023-04-01T15:52:06;3.10;;;1.40;;
23088;SDS011;11713;48.506;8.966;2023-04-01T15:58:21;2.30;;;1.20;;
23088;SDS011;11713;48.506;8.966;2023-04-01T16:14:48;2.83;;;1.00;;
23088;SDS011;11713;48.506;8.966;2023-04-01T16:20:34;1.80;;;1.10;;
23088;SDS011;11713;48.506;8.966;2023-04-01T16:25:49;1.73;;;1.40;;
23088;SDS011;11713;48.506;8.966;2023-04-01T16:34:36;1.43;;;1.20;;
23088;SDS011;11713;48.506;8.966;2023-04-01T16:37:43;1.43;;;1.17;;
23088;SDS011;11713;48.506;8.966;2023-04-01T16:40:16;0.93;;;0.90;;
23088;SDS011;11713;48.506;8.966;2023-04-01T16:48:58;1.10;;;1.00;;
23088;SDS011;11713;48.506;8.966;2023-04-01T16:52:03;1.20;;;1.10;;
23088;SDS011;11713;48.506;8.966;2023-04-01T16:56:55;2.10;;;1.13;;
23088;SDS011;11713;48.506;8.966;2023-04-01T16:59:24;2.27;;;1.20;;
23088;SDS011;11713;48.506;8.966;2023-04-01T17:04:30;1.50;;;1.40;;
23088;SDS011;11713;48.506;8.966;2023-04-01T17:10:46;2.03;;;1.60;;
23088;SDS011;11713;48.506;8.966;2023-04-01T17:16:26;2.80;;;1.87;;
23088;SDS011;11713;48.506;8.966;2023-04-01T17:19:16;4.67;;;1.97;;
23088;SDS011;11713;48.506;8.966;2023-04-01T17:24:42;2.23;;;1.27;;
23088;SDS011;11713;48.506;8.966;2023-04-01T17:35:17;2.10;;;1.40;;
23088;SDS011;11713;48.506;8.966;2023-04-01T17:45:45;2.33;;;1.20;;
23088;SDS011;11713;48.506;8.966;2023-04-01T17:48:37;3.00;;;2.20;;
23088;SDS011;11713;48.506;8.966;2023-04-01T17:53:40;1.37;;;1.23;;
23088;SDS011;11713;48.506;8.966;2023-04-01T17:56:35;2.37;;;1.60;;
23088;SDS011;11713;48.506;8.966;2023-04-01T18:01:53;3.43;;;2.90;;
23088;SDS011;11713;48.506;8.966;2023-04-01T18:07:20;8.27;;;4.83;;
23088;SDS011;11713;48.506;8.966;2023-04-01T18:15:45;2.37;;;1.77;;
23088;SDS011;11713;48.506;8.966;2023-04-01T18:21:08;3.67;;;1.63;;
23088;SDS011;11713;48.506;8.966;2023-04-01T18:23:53;13.50;;;7.23;;
23088;SDS011;11713;48.506;8.966;2023-04-01T18:26:32;11.63;;;6.37;;
23088;SDS011;11713;48.506;8.966;2023-04-01T18:37:49;2.60;;;2.00;;
23088;SDS011;11713;48.506;8.966;2023-04-01T18:48:57;0.63;;;0.60;;
23088;SDS011;11713;48.506;8.966;2023-04-01T18:54:19;0.70;;;0.70;;
23088;SDS011;11713;48.506;8.966;2023-04-01T18:57:02;0.60;;;0.60;;
23088;SDS011;11713;48.506;8.966;2023-04-01T18:59:44;0.50;;;0.50;;
23088;SDS011;11713;48.506;8.966;2023-04-01T19:02:29;19.87;;;7.57;;
23088;SDS011;11713;48.506;8.966;2023-04-01T19:26:46;1.63;;;1.53;;
23088;SDS011;11713;48.506;8.966;2023-04-01T19:29:23;3.97;;;3.40;;
23088;SDS011;11713;48.506;8.966;2023-04-01T19:32:14;7.03;;;4.77;;
23088;SDS011;11713;48.506;8.966;2023-04-01T19:51:29;8.50;;;6.93;;
23088;SDS011;11713;48.506;8.966;2023-04-01T19:54:30;9.23;;;8.10;;
23088;SDS011;11713;48.506;8.966;2023-04-01T19:59:57;8.97;;;8.03;;
23088;SDS011;11713;48.506;8.966;2023-04-01T20:07:51;1.90;;;1.57;;
23088;SDS011;11713;48.506;8.966;2023-04-01T20:10:22;3.97;;;2.30;;
23088;SDS011;11713;48.506;8.966;2023-04-01T20:15:34;8.03;;;5.20;;
23088;SDS011;11713;48.506;8.966;2023-04-01T20:21:05;2.83;;;2.27;;
23088;SDS011;11713;48.506;8.966;2023-04-01T20:23:50;2.13;;;1.93;;
23088;SDS011;11713;48.506;8.966;2023-04-01T20:26:22;2.30;;;1.60;;
23088;SDS011;11713;48.506;8.966;2023-04-01T20:31:42;3.30;;;1.70;;
23088;SDS011;11713;48.506;8.966;2023-04-01T20:37:34;2.60;;;1.80;;
23088;SDS011;11713;48.506;8.966;2023-04-01T20:47:00;1.97;;;1.40;;
23088;SDS011;11713;48.506;8.966;2023-04-01T21:00:07;1.47;;;1.20;;
23088;SDS011;11713;48.506;8.966;2023-04-01T21:03:15;2.10;;;1.30;;
23088;SDS011;11713;48.506;8.966;2023-04-01T21:05:54;1.90;;;1.70;;
23088;SDS011;11713;48.506;8.966;2023-04-01T21:08:47;2.47;;;1.67;;
23088;SDS011;11713;48.506;8.966;2023-04-01T21:22:43;1.97;;;1.63;;
23088;SDS011;11713;48.506;8.966;2023-04-01T21:28:40;1.20;;;1.00;;
23088;SDS011;11713;48.506;8.966;2023-04-01T21:31:37;1.47;;;0.90;;
23088;SDS011;11713;48.506;8.966;2023-04-01T21:39:42;1.37;;;1.00;;
23088;SDS011;11713;48.506;8.966;2023-04-01T21:47:48;1.13;;;0.70;;
23088;SDS011;11713;48.506;8.966;2023-04-01T21:56:09;0.90;;;0.50;;
23088;SDS011;11713;48.506;8.966;2023-04-01T22:01:56;0.90;;;0.90;;
23088;SDS011;11713;48.506;8.966;2023-04-01T22:07:12;1.80;;;1.00;;
23088;SDS011;11713;48.506;8.966;2023-04-01T22:12:20;2.20;;;1.40;;
23088;SDS011;11713;48.506;8.966;2023-04-01T22:20:44;1.50;;;1.20;;
23088;SDS011;11713;48.506;8.966;2023-04-01T22:31:38;0.60;;;0.60;;
23088;SDS011;11713;48.506;8.966;2023-04-01T22:34:19;0.60;;;0.60;;
23088;SDS011;11713;48.506;8.966;2023-04-01T22:37:19;1.33;;;0.70;;
23088;SDS011;11713;48.506;8.966;2023-04-01T22:42:39;0.60;;;0.60;;
23088;SDS011;11713;48.506;8.966;2023-04-01T22:55:48;1.37;;;0.80;;
23088;SDS011;11713;48.506;8.966;2023-04-01T22:58:25;0.53;;;0.53;;
23088;SDS011;11713;48.506;8.966;2023-04-01T23:01:12;1.40;;;0.87;;
23088;SDS011;11713;48.506;8.966;2023-04-01T23:03:47;3.10;;;1.43;;
23088;SDS011;11713;48.506;8.966;2023-04-01T23:06:22;5.30;;;2.10;;
23088;SDS011;11713;48.506;8.966;2023-04-01T23:12:24;1.63;;;1.00;;
23088;SDS011;11713;48.506;8.966;2023-04-01T23:14:50;0.97;;;0.87;;
23088;SDS011;11713;48.506;8.966;2023-04-01T23:17:39;1.83;;;1.20;;
23088;SDS011;11713;48.506;8.966;2023-04-01T23:20:30;2.87;;;1.73;;
23088;SDS011;11713;48.506;8.966;2023-04-01T23:31:06;1.23;;;0.80;;
23088;SDS011;11713;48.506;8.966;2023-04-01T23:33:56;1.30;;;0.97;;
23088;SDS011;11713;48.506;8.966;2023-04-01T23:36:25;0.80;;;0.70;;
23088;SDS011;11713;48.506;8.966;2023-04-01T23:38:52;0.70;;;0.70;;
23088;SDS011;11713;48.506;8.966;2023-04-01T23:41:28;0.70;;;0.70;;
23088;SDS011;11713;48.506;8.966;2023-04-01T23:44:02;1.10;;;1.00;;
23088;SDS011;11713;48.506;8.966;2023-04-01T23:46:35;1.03;;;0.90;;
23088;SDS011;11713;48.506;8.966;2023-04-01T23:49:04;0.87;;;0.83;;
23088;SDS011;11713;48.506;8.966;2023-04-01T23:51:38;0.90;;;0.77;;
23088;SDS011;11713;48.506;8.966;2023-04-01T23:54:14;1.97;;;0.70;;
23088;SDS011;11713;48.506;8.966;2023-04-01T23:57:04;0.87;;;0.63;;
23088;SDS011;11713;48.506;8.966;2023-04-01T23:59:37;0.60;;;0.60;;
